Time;durP1;ratioP1;P1;durP2;ratioP2;P2;SDS_P1;SDS_P2;PMS_P1;PMS_P2;Temp;Humidity;BMP_temperature;BMP_pressure;BME280_temperature;BME280_humidity;BME280_pressure;Samples;Min_cycle;Max_cycle;Signal;HPM_P1;HPM_P2
2021/11/20 00:02:00;;;;;;;;;28.25;26.25;;;;;9.64;73.33;101837.28;5077898;28;45376;-79
2021/11/20 00:04:26;;;;;;;;;38.50;31.25;;;;;9.58;73.37;101831.31;5077102;28;45515;-79
2021/11/20 00:06:55;;;;;;;;;28.25;27.25;;;;;9.60;73.38;101826.78;5077525;28;45347;-79
2021/11/20 00:09:23;;;;;;;;;30.25;27.50;;;;;9.61;73.23;101837.38;5077523;28;45252;-79
2021/11/20 00:11:51;;;;;;;;;30.75;29.25;;;;;9.63;73.64;101834.66;5077798;28;45241;-79
2021/11/20 00:14:18;;;;;;;;;32.50;29.00;;;;;9.62;73.25;101830.25;5077453;28;45495;-79
2021/11/20 00:16:45;;;;;;;;;30.00;28.25;;;;;9.65;73.30;101827.53;5077316;28;45709;-79
2021/11/20 00:19:12;;;;;;;;;31.00;26.75;;;;;9.65;73.38;101822.22;5077267;28;45177;-79
2021/11/20 00:22:08;;;;;;;;;28.25;26.00;;;;;9.63;73.58;101827.59;5058133;28;45204;-79
2021/11/20 00:24:38;;;;;;;;;31.75;29.00;;;;;9.61;73.51;101829.41;5056510;28;46061;-79
2021/11/20 00:27:07;;;;;;;;;35.00;28.00;;;;;9.61;73.88;101826.75;5057208;28;45312;-79
2021/11/20 00:30:13;;;;;;;;;27.75;27.75;;;;;9.63;73.40;101816.06;5056866;28;45371;-79
2021/11/20 00:32:27;;;;;;;;;26.00;22.75;;;;;9.64;73.26;101816.03;5053780;28;45186;-79
2021/11/20 00:34:56;;;;;;;;;28.50;26.25;;;;;9.61;73.52;101805.50;5056278;28;46638;-79
2021/11/20 00:37:22;;;;;;;;;26.25;24.00;;;;;9.57;73.73;101803.84;5056872;28;45295;-79
2021/11/20 00:39:50;;;;;;;;;29.25;27.75;;;;;9.61;73.45;101805.50;5038830;28;45213;-79
2021/11/20 00:42:15;;;;;;;;;25.75;23.00;;;;;9.59;73.28;101798.50;5057315;28;45297;-79
2021/11/20 00:44:41;;;;;;;;;28.33;23.67;;;;;9.62;73.75;101801.06;5056549;28;45226;-79
2021/11/20 00:47:06;;;;;;;;;25.25;23.75;;;;;9.61;73.80;101800.19;5056825;28;45182;-79
2021/11/20 00:49:32;;;;;;;;;29.00;26.00;;;;;9.62;73.68;101796.63;5056830;28;45142;-79
2021/11/20 00:51:58;;;;;;;;;28.50;24.25;;;;;9.63;73.38;101794.84;5056871;28;45306;-79
2021/11/20 00:54:25;;;;;;;;;25.00;24.75;;;;;9.68;73.76;101792.91;5056165;28;46808;-79
2021/11/20 00:56:51;;;;;;;;;28.25;23.00;;;;;9.71;73.51;101790.16;5053726;28;45275;-79
2021/11/20 00:59:17;;;;;;;;;21.50;19.25;;;;;9.72;73.42;101786.59;5056708;28;45182;-79
2021/11/20 01:01:56;;;;;;;;;26.25;23.50;;;;;9.70;73.65;101776.94;5056686;28;45264;-79
2021/11/20 01:04:24;;;;;;;;;21.50;20.75;;;;;9.69;73.68;101773.41;5054811;28;45538;-79
2021/11/20 01:06:50;;;;;;;;;24.25;20.00;;;;;9.70;73.21;101767.16;5056443;28;45675;-79
2021/11/20 01:09:19;;;;;;;;;18.25;18.25;;;;;9.68;73.62;101772.53;5056737;28;45277;-79
2021/11/20 01:11:50;;;;;;;;;23.75;20.00;;;;;9.63;73.72;101763.84;5056463;28;45203;-79
2021/11/20 01:14:19;;;;;;;;;19.25;18.00;;;;;9.55;73.70;101770.28;5056441;28;46227;-78
2021/11/20 01:16:47;;;;;;;;;17.25;17.25;;;;;9.54;74.38;101779.19;5056048;28;45558;-79
2021/11/20 01:19:13;;;;;;;;;22.50;18.75;;;;;9.48;74.04;101774.94;5056463;28;45323;-79
2021/11/20 01:21:40;;;;;;;;;23.25;18.25;;;;;9.45;74.38;101770.59;5075142;28;45203;-79
2021/11/20 01:24:07;;;;;;;;;21.75;19.75;;;;;9.44;74.20;101768.84;5076457;28;45435;-79
2021/11/20 01:26:33;;;;;;;;;19.75;17.50;;;;;9.39;74.48;101762.84;5076389;28;45782;-79
2021/11/20 01:29:00;;;;;;;;;18.50;16.50;;;;;9.38;74.58;101761.09;5076685;28;45202;-79
2021/11/20 01:31:28;;;;;;;;;22.25;19.50;;;;;9.27;74.74;101750.78;5058145;28;45408;-79
2021/11/20 01:33:54;;;;;;;;;21.00;21.00;;;;;9.32;74.86;101756.00;5076486;28;46234;-79
2021/11/20 01:36:24;;;;;;;;;22.00;18.50;;;;;9.35;74.67;101757.66;5076316;28;45766;-79
2021/11/20 01:38:51;;;;;;;;;21.50;19.25;;;;;9.37;74.53;101756.69;5076865;28;45167;-79
2021/11/20 01:41:18;;;;;;;;;25.75;21.75;;;;;9.36;74.83;101746.13;5076196;28;45308;-79
2021/11/20 01:43:49;;;;;;;;;21.75;20.50;;;;;9.33;74.78;101747.97;5076342;28;46064;-78
2021/11/20 01:46:23;;;;;;;;;23.25;21.00;;;;;9.33;75.50;101747.09;5075990;28;45257;-79
2021/11/20 01:48:56;;;;;;;;;22.00;17.50;;;;;9.31;75.05;101747.13;5076590;28;45352;-79
2021/11/20 01:51:26;;;;;;;;;22.75;20.00;;;;;9.33;75.41;101747.97;5076171;28;45226;-79
2021/11/20 01:54:28;;;;;;;;;20.00;18.25;;;;;9.35;75.50;101739.97;5076037;28;45383;-79
2021/11/20 01:57:32;;;;;;;;;26.75;18.25;;;;;9.35;75.05;101733.75;5075867;28;45613;-79
2021/11/20 02:00:22;;;;;;;;;21.50;17.00;;;;;9.35;75.03;101737.31;5058201;28;45309;-79
2021/11/20 02:03:25;;;;;;;;;24.00;18.25;;;;;9.35;75.07;101741.72;5076229;28;45295;-79
2021/11/20 02:06:08;;;;;;;;;21.50;17.75;;;;;9.34;75.36;101738.22;5075763;28;45509;-79
2021/11/20 02:08:58;;;;;;;;;18.00;16.50;;;;;9.31;75.19;101740.97;5079789;28;45743;-79
2021/11/20 02:11:26;;;;;;;;;19.75;17.75;;;;;9.32;75.25;101740.06;5079464;28;45261;-79
2021/11/20 02:13:52;;;;;;;;;25.00;19.75;;;;;9.29;75.15;101735.72;5079710;28;45206;-79
2021/11/20 02:16:31;;;;;;;;;19.00;18.00;;;;;9.32;75.51;101732.94;5078821;28;45325;-79
2021/11/20 02:18:59;;;;;;;;;16.50;14.25;;;;;9.30;75.17;101729.47;5061300;28;45777;-78
2021/11/20 02:21:46;;;;;;;;;20.75;16.25;;;;;9.27;75.31;101728.72;5062011;28;45219;-79
2021/11/20 02:24:11;;;;;;;;;18.75;17.00;;;;;9.25;75.43;101734.06;5059225;28;45268;-79
2021/11/20 02:26:36;;;;;;;;;18.00;16.67;;;;;9.25;75.45;101722.56;5058923;28;46339;-79
2021/11/20 02:29:06;;;;;;;;;17.00;16.67;;;;;9.23;75.40;101721.75;5059034;28;45210;-79
2021/11/20 02:31:35;;;;;;;;;18.75;17.25;;;;;9.18;75.92;101718.34;5059065;28;45242;-79
2021/11/20 02:34:02;;;;;;;;;21.50;20.00;;;;;9.21;75.61;101719.16;5059121;28;45248;-79
2021/11/20 02:36:28;;;;;;;;;23.75;22.00;;;;;9.21;75.85;101728.91;5059042;28;45531;-79
2021/11/20 02:38:54;;;;;;;;;22.25;18.00;;;;;9.21;75.75;101719.16;5058941;28;45128;-79
2021/11/20 02:41:20;;;;;;;;;23.75;23.75;;;;;9.21;75.94;101718.28;5058646;28;45364;-79
2021/11/20 02:43:50;;;;;;;;;23.75;21.75;;;;;9.20;75.82;101717.41;5058966;28;45167;-79
2021/11/20 02:46:23;;;;;;;;;23.75;21.00;;;;;9.19;75.63;101714.81;5058550;28;45242;-79
2021/11/20 02:48:50;;;;;;;;;26.50;22.75;;;;;9.15;75.79;101717.56;5041622;28;45718;-79
2021/11/20 02:51:25;;;;;;;;;30.50;26.50;;;;;9.14;76.13;101715.81;5040359;28;45294;-79
2021/11/20 02:53:59;;;;;;;;;23.00;22.25;;;;;9.14;75.97;101709.66;5059067;28;45191;-79
2021/11/20 02:56:41;;;;;;;;;27.75;24.75;;;;;9.12;75.88;101709.69;5058446;28;45390;-79
2021/11/20 02:59:10;;;;;;;;;27.00;24.25;;;;;9.13;76.22;101695.47;5040288;28;45656;-79
2021/11/20 03:01:38;;;;;;;;;20.25;20.25;;;;;9.14;76.16;101696.38;5058650;28;45315;-79
2021/11/20 03:04:06;;;;;;;;;26.50;22.50;;;;;9.15;76.20;101696.31;5058688;28;45288;-79
2021/11/20 03:06:33;;;;;;;;;28.25;26.25;;;;;9.19;76.34;101690.91;5058688;28;45231;-79
2021/11/20 03:09:00;;;;;;;;;29.00;24.25;;;;;9.17;75.82;101674.19;5058259;28;45195;-79
2021/11/20 03:11:25;;;;;;;;;30.75;26.50;;;;;9.19;75.96;101669.69;5058381;28;45177;-79
2021/11/20 03:13:54;;;;;;;;;28.00;24.00;;;;;9.22;75.92;101672.25;5058641;28;45176;-79
2021/11/20 03:16:21;;;;;;;;;23.50;22.50;;;;;9.19;76.01;101661.72;5039938;28;46110;-79
2021/11/20 03:18:47;;;;;;;;;24.00;22.50;;;;;9.24;76.28;101673.06;5057497;28;45744;-79
2021/11/20 03:21:16;;;;;;;;;25.25;22.00;;;;;9.26;76.17;101666.81;5073331;28;45428;-79
2021/11/20 03:23:45;;;;;;;;;26.25;21.00;;;;;9.28;75.95;101664.09;5078278;28;45417;-79
2021/11/20 03:26:11;;;;;;;;;22.25;20.00;;;;;9.27;75.84;101665.88;5078081;28;46439;-80
2021/11/20 03:28:36;;;;;;;;;24.00;22.50;;;;;9.25;75.56;101654.44;5078523;28;45744;-79
2021/11/20 03:31:03;;;;;;;;;23.75;19.00;;;;;9.24;75.41;101652.69;5078447;28;45193;-79
2021/11/20 03:33:29;;;;;;;;;20.00;20.00;;;;;9.22;75.24;101646.59;5078572;28;45194;-79
2021/11/20 03:35:55;;;;;;;;;20.25;19.00;;;;;9.17;75.46;101640.56;5078046;28;45193;-79
2021/11/20 03:38:21;;;;;;;;;27.25;21.00;;;;;9.15;75.58;101640.59;5059825;28;45195;-79
2021/11/20 03:40:47;;;;;;;;;29.75;24.50;;;;;9.12;75.43;101643.38;5076584;28;45261;-79
2021/11/20 03:43:13;;;;;;;;;25.25;23.25;;;;;9.09;75.68;101638.16;5076317;28;45294;-81
2021/11/20 03:45:39;;;;;;;;;28.50;23.00;;;;;9.07;75.82;101631.16;5077564;28;45160;-79
2021/11/20 03:48:06;;;;;;;;;27.00;24.75;;;;;9.06;75.95;101629.41;5077962;28;45704;-79
2021/11/20 03:50:32;;;;;;;;;28.75;20.50;;;;;9.04;76.04;101624.16;5077917;28;45126;-80
2021/11/20 03:52:58;;;;;;;;;25.75;22.75;;;;;9.00;75.97;101621.66;5077737;28;45221;-79
2021/11/20 03:55:31;;;;;;;;;25.00;20.75;;;;;9.00;75.96;101619.88;5077476;28;46230;-79
2021/11/20 03:57:57;;;;;;;;;25.25;22.00;;;;;8.99;76.11;101620.78;5077635;28;45201;-79
2021/11/20 04:00:27;;;;;;;;;25.00;22.50;;;;;8.96;75.98;101610.25;5077638;28;45230;-79
2021/11/20 04:02:52;;;;;;;;;26.00;22.50;;;;;8.95;76.21;101612.06;5076167;28;45226;-79
2021/11/20 04:05:20;;;;;;;;;20.00;18.00;;;;;8.91;75.84;101599.81;5077655;28;45624;-79
2021/11/20 04:07:45;;;;;;;;;26.25;17.25;;;;;8.92;76.07;101601.56;5059280;28;46052;-79
2021/11/20 04:10:12;;;;;;;;;21.00;16.50;;;;;8.92;75.98;101596.25;5077632;28;45207;-79
2021/11/20 04:12:39;;;;;;;;;19.75;18.25;;;;;8.91;75.72;101596.31;5077867;28;45376;-79
2021/11/20 04:15:08;;;;;;;;;23.75;21.00;;;;;8.89;76.18;101596.34;5077241;28;45515;-79
2021/11/20 04:17:34;;;;;;;;;20.25;17.50;;;;;8.87;76.16;101594.66;5077408;28;45170;-79
2021/11/20 04:19:59;;;;;;;;;21.75;20.75;;;;;8.84;76.04;101592.09;5072283;28;45464;-79
2021/11/20 04:22:25;;;;;;;;;23.50;19.50;;;;;8.83;76.55;101585.06;5057127;28;45175;-79
2021/11/20 04:24:50;;;;;;;;;22.25;20.00;;;;;8.80;76.18;101578.91;5056897;28;45916;-79
2021/11/20 04:27:15;;;;;;;;;25.00;19.25;;;;;8.78;75.96;101571.94;5055017;28;45215;-79
2021/11/20 04:29:40;;;;;;;;;21.50;21.25;;;;;8.78;76.27;101580.75;5056369;28;45282;-79
2021/11/20 04:32:07;;;;;;;;;20.50;18.50;;;;;8.72;76.28;101570.34;5056634;28;45178;-79
2021/11/20 04:34:33;;;;;;;;;26.00;20.25;;;;;8.72;76.11;101566.81;5056950;28;46299;-79
2021/11/20 04:36:58;;;;;;;;;19.75;19.00;;;;;8.69;76.16;101565.13;5056584;28;45276;-79
2021/11/20 04:39:24;;;;;;;;;21.00;16.67;;;;;8.70;76.48;101577.47;5056913;28;45260;-79
2021/11/20 04:41:49;;;;;;;;;19.50;16.00;;;;;8.68;76.21;101567.81;5056887;28;45229;-79
2021/11/20 04:44:15;;;;;;;;;23.00;18.75;;;;;8.58;76.21;101565.47;5056629;28;46534;-79
2021/11/20 04:46:40;;;;;;;;;20.25;17.75;;;;;8.58;76.42;101572.53;5056207;28;45355;-79
2021/11/20 04:49:06;;;;;;;;;21.75;17.50;;;;;8.54;76.64;101566.47;5056594;28;45458;-79
2021/11/20 04:51:33;;;;;;;;;21.00;19.75;;;;;8.55;76.55;101570.88;5056785;28;45203;-79
2021/11/20 04:53:59;;;;;;;;;21.75;18.00;;;;;8.56;76.58;101562.00;5056569;28;46750;-79
2021/11/20 04:56:26;;;;;;;;;19.75;16.75;;;;;8.58;76.59;101559.28;5056449;28;45243;-79
2021/11/20 04:58:53;;;;;;;;;13.75;12.50;;;;;8.55;76.59;101554.09;5056695;28;45223;-79
2021/11/20 05:01:21;;;;;;;;;16.25;14.50;;;;;8.59;76.62;101547.78;5056410;28;45320;-79
2021/11/20 05:03:49;;;;;;;;;20.25;19.00;;;;;8.60;76.45;101555.69;5054924;28;47005;-79
2021/11/20 05:06:15;;;;;;;;;17.00;16.00;;;;;8.55;76.74;101549.66;5055973;28;45590;-79
2021/11/20 05:08:40;;;;;;;;;21.75;16.25;;;;;8.56;76.64;101555.84;5056607;28;45195;-79
2021/11/20 05:11:07;;;;;;;;;18.00;16.00;;;;;8.57;76.32;101563.72;5056366;28;45269;-79
2021/11/20 05:13:33;;;;;;;;;17.25;14.75;;;;;8.54;76.10;101558.53;5037859;28;46919;-79
2021/11/20 05:15:59;;;;;;;;;14.50;14.50;;;;;8.55;76.46;101560.28;5037971;28;45369;-79
2021/11/20 05:18:26;;;;;;;;;16.25;15.25;;;;;8.53;76.27;101562.09;5038212;28;45246;-79
2021/11/20 05:20:52;;;;;;;;;13.50;11.00;;;;;8.53;76.72;101553.28;5068441;28;45399;-79
2021/11/20 05:23:18;;;;;;;;;17.25;14.00;;;;;8.55;76.11;101551.44;5076538;28;45240;-79
2021/11/20 05:25:45;;;;;;;;;15.50;13.75;;;;;8.54;76.39;101545.28;5076470;28;45238;-79
2021/11/20 05:28:11;;;;;;;;;13.50;10.25;;;;;8.56;76.00;101550.53;5076603;28;45214;-79
2021/11/20 05:30:40;;;;;;;;;12.25;12.25;;;;;8.52;76.45;101546.22;5076364;28;45281;-79
2021/11/20 05:33:12;;;;;;;;;15.75;13.50;;;;;8.55;76.14;101546.13;5074324;28;46490;-79
2021/11/20 05:35:37;;;;;;;;;13.25;13.25;;;;;8.52;75.98;101544.44;5075455;28;45343;-79
2021/11/20 05:38:04;;;;;;;;;12.75;12.25;;;;;8.51;76.08;101541.84;5058329;28;45207;-79
2021/11/20 05:40:30;;;;;;;;;15.75;15.00;;;;;8.47;76.48;101530.47;5058196;28;45269;-79
2021/11/20 05:42:59;;;;;;;;;12.00;12.00;;;;;8.54;76.31;101542.63;5079164;28;45992;-79
2021/11/20 05:45:29;;;;;;;;;15.50;13.50;;;;;8.55;76.36;101539.06;5079830;28;45620;-79
2021/11/20 05:47:55;;;;;;;;;23.25;17.25;;;;;8.55;76.53;101536.41;5061606;28;45324;-79
2021/11/20 05:50:22;;;;;;;;;21.25;19.25;;;;;8.56;76.67;101537.28;5079767;28;45222;-79
2021/11/20 05:52:51;;;;;;;;;20.25;17.25;;;;;8.51;76.64;101532.13;5079368;28;46584;-78
2021/11/20 05:55:19;;;;;;;;;18.50;17.50;;;;;8.52;76.57;101538.28;5079606;28;45145;-79
2021/11/20 05:57:44;;;;;;;;;18.50;16.00;;;;;8.51;76.30;101529.47;5079630;28;45258;-79
2021/11/20 06:00:17;;;;;;;;;16.25;16.25;;;;;8.54;76.72;101537.31;5077947;28;45270;-79
2021/11/20 06:02:42;;;;;;;;;9.50;9.50;;;;;8.50;76.37;101535.69;5079352;28;45139;-79
2021/11/20 06:05:08;;;;;;;;;18.50;16.00;;;;;8.48;76.48;101539.28;5079379;28;45303;-79
2021/11/20 06:07:33;;;;;;;;;19.00;13.50;;;;;8.45;76.43;101527.00;5079647;28;45495;-79
2021/11/20 06:09:59;;;;;;;;;12.75;11.75;;;;;8.46;76.70;101521.66;5079428;28;45237;-79
2021/11/20 06:12:26;;;;;;;;;13.50;12.50;;;;;8.49;76.42;101538.38;5079397;28;46222;-79
2021/11/20 06:14:51;;;;;;;;;11.50;10.00;;;;;8.43;76.69;101532.31;5079088;28;45315;-79
2021/11/20 06:17:17;;;;;;;;;11.50;7.50;;;;;8.40;76.37;101532.41;5079385;28;45371;-79
2021/11/20 06:19:43;;;;;;;;;9.25;9.25;;;;;8.41;76.50;101539.44;5076488;28;45289;-79
2021/11/20 06:22:08;;;;;;;;;10.25;6.50;;;;;8.41;76.12;101541.25;5058869;28;45196;-79
2021/11/20 06:24:34;;;;;;;;;6.25;6.00;;;;;8.39;76.37;101538.63;5058965;28;45230;-79
2021/11/20 06:26:59;;;;;;;;;10.50;8.00;;;;;8.36;76.32;101536.06;5058703;28;45144;-79
2021/11/20 06:29:25;;;;;;;;;8.75;6.75;;;;;8.38;76.60;101543.97;5059097;28;45107;-79
2021/11/20 06:31:50;;;;;;;;;13.25;12.00;;;;;8.41;76.32;101538.59;5056887;28;45327;-79
2021/11/20 06:34:16;;;;;;;;;13.00;10.50;;;;;8.42;76.86;101532.34;5058966;28;45140;-79
2021/11/20 06:36:43;;;;;;;;;12.50;9.50;;;;;8.48;77.02;101542.81;5058905;28;45142;-78
2021/11/20 06:39:08;;;;;;;;;9.50;7.50;;;;;8.50;76.65;101535.69;5058709;28;45360;-78
2021/11/20 06:41:34;;;;;;;;;10.00;7.75;;;;;8.51;76.13;101536.53;5058714;28;45576;-78
2021/11/20 06:44:01;;;;;;;;;12.25;10.75;;;;;8.49;76.12;101530.44;5058808;28;45670;-78
2021/11/20 06:46:26;;;;;;;;;9.50;8.50;;;;;8.43;76.80;101534.09;5058571;28;45213;-78
2021/11/20 06:48:51;;;;;;;;;8.25;8.25;;;;;8.41;76.25;101522.69;5058662;28;45274;-78
2021/11/20 06:51:18;;;;;;;;;8.50;8.50;;;;;8.38;76.38;101528.06;5058544;28;45328;-78
2021/11/20 06:53:45;;;;;;;;;12.00;8.25;;;;;8.34;76.65;101529.97;5057235;28;45580;-78
2021/11/20 06:56:15;;;;;;;;;12.50;5.75;;;;;8.30;76.13;101528.31;5058609;28;45236;-79
2021/11/20 07:01:15;;;;;;;;;9.75;7.00;;;;;8.27;76.79;101512.50;5058242;28;45847;-78
2021/11/20 07:03:48;;;;;;;;;7.00;5.75;;;;;8.28;76.22;101509.81;5058429;28;45727;-78
2021/11/20 07:06:19;;;;;;;;;7.00;6.75;;;;;8.25;76.42;101516.97;5058333;28;45195;-79
2021/11/20 07:08:46;;;;;;;;;7.25;6.50;;;;;8.22;76.48;101517.97;5040592;28;45210;-78
2021/11/20 07:11:12;;;;;;;;;6.50;5.00;;;;;8.21;76.09;101521.50;5058338;28;46320;-78
2021/11/20 07:13:38;;;;;;;;;7.25;6.00;;;;;8.21;76.60;101512.66;5058253;28;45190;-78
2021/11/20 07:16:05;;;;;;;;;4.25;4.25;;;;;8.20;76.32;101526.84;5058288;28;45223;-78
2021/11/20 07:18:31;;;;;;;;;6.00;6.00;;;;;8.17;76.85;101513.72;5058187;28;45217;-78
2021/11/20 07:20:56;;;;;;;;;6.00;4.50;;;;;8.20;76.31;101522.41;5070978;28;45954;-79
2021/11/20 07:23:24;;;;;;;;;6.75;6.25;;;;;8.21;76.21;101523.28;5078497;28;45190;-78
2021/11/20 07:25:49;;;;;;;;;7.00;5.00;;;;;8.18;76.84;101515.41;5076296;28;45282;-78
2021/11/20 07:28:15;;;;;;;;;11.75;8.25;;;;;8.21;76.66;101526.81;5078336;28;45232;-78
2021/11/20 07:30:41;;;;;;;;;8.50;6.50;;;;;8.21;76.87;101528.56;5077864;28;45217;-78
2021/11/20 07:33:09;;;;;;;;;10.50;7.25;;;;;8.20;76.88;101533.00;5078038;28;45134;-78
2021/11/20 07:35:36;;;;;;;;;10.50;7.00;;;;;8.19;77.09;101541.88;5078003;28;45195;-78
2021/11/20 07:38:04;;;;;;;;;7.00;7.00;;;;;8.20;76.48;101542.75;5078025;28;45222;-78
2021/11/20 07:40:32;;;;;;;;;8.75;7.00;;;;;8.21;77.22;101531.22;5076249;28;46421;-78
2021/11/20 07:42:58;;;;;;;;;7.25;7.25;;;;;8.22;76.79;101539.16;5077811;28;45685;-78
2021/11/20 07:45:24;;;;;;;;;9.00;9.00;;;;;8.22;76.94;101522.38;5077923;28;45225;-79
2021/11/20 07:47:50;;;;;;;;;10.25;9.00;;;;;8.26;77.11;101535.47;5078029;28;45186;-78
2021/11/20 07:50:16;;;;;;;;;11.75;10.25;;;;;8.32;77.12;101539.72;5077660;28;46384;-78
2021/11/20 07:52:43;;;;;;;;;13.00;9.00;;;;;8.34;76.61;101535.25;5077644;28;45654;-78
2021/11/20 07:55:16;;;;;;;;;20.00;13.00;;;;;8.35;76.75;101537.00;5058710;28;45195;-78
2021/11/20 07:57:41;;;;;;;;;8.75;8.50;;;;;8.35;76.54;101533.47;5077974;28;45281;-80
2021/11/20 08:00:12;;;;;;;;;10.25;8.50;;;;;8.39;76.58;101535.97;5075625;28;46071;-78
2021/11/20 08:02:37;;;;;;;;;9.75;9.25;;;;;8.41;77.03;101538.59;5059310;28;45245;-78
2021/11/20 08:05:03;;;;;;;;;9.25;7.75;;;;;8.39;77.16;101541.25;5077529;28;45212;-78
2021/11/20 08:07:29;;;;;;;;;8.00;8.00;;;;;8.42;76.66;101541.19;5077692;28;45353;-79
2021/11/20 08:09:54;;;;;;;;;11.00;9.75;;;;;8.48;76.74;101541.94;5077398;28;45277;-78
2021/11/20 08:12:20;;;;;;;;;12.00;7.75;;;;;8.46;76.59;101549.94;5077514;28;45177;-79
2021/11/20 08:14:45;;;;;;;;;7.75;7.75;;;;;8.41;76.39;101544.75;5077394;28;45240;-82
2021/11/20 08:17:10;;;;;;;;;13.25;10.25;;;;;8.37;76.49;101539.59;5075879;28;45512;-81
2021/11/20 08:19:36;;;;;;;;;11.75;7.00;;;;;8.38;76.75;101539.56;5075432;28;45321;-82
2021/11/20 08:22:02;;;;;;;;;11.25;8.75;;;;;8.45;76.57;101533.19;5038925;28;45352;-83
2021/11/20 08:24:28;;;;;;;;;10.25;7.50;;;;;8.45;76.43;101524.34;5038448;28;45152;-81
2021/11/20 08:26:54;;;;;;;;;12.50;8.00;;;;;8.46;75.94;101524.31;5057130;28;45336;-81
2021/11/20 08:29:22;;;;;;;;;11.00;9.75;;;;;8.47;76.29;101514.56;5056691;28;45278;-81
2021/11/20 08:31:49;;;;;;;;;8.25;7.00;;;;;8.53;76.70;101516.16;5056867;28;45598;-81
2021/11/20 08:34:16;;;;;;;;;12.25;10.00;;;;;8.56;76.17;101513.41;5057069;28;45254;-81
2021/11/20 08:36:43;;;;;;;;;12.75;12.00;;;;;8.54;76.39;101508.16;5057224;28;45179;-82
2021/11/20 08:39:09;;;;;;;;;15.00;10.50;;;;;8.60;76.35;101509.75;5056713;28;46180;-81
2021/11/20 08:41:35;;;;;;;;;16.25;10.25;;;;;8.59;76.31;101503.59;5056905;28;45722;-82
2021/11/20 08:44:01;;;;;;;;;13.50;10.75;;;;;8.60;75.79;101499.16;5056990;28;45241;-81
2021/11/20 08:46:27;;;;;;;;;17.25;14.50;;;;;8.60;76.07;101488.56;5054961;28;45345;-81
2021/11/20 08:48:52;;;;;;;;;13.50;10.50;;;;;8.61;75.81;101488.50;5056708;28;46225;-81
2021/11/20 08:51:21;;;;;;;;;11.25;11.25;;;;;8.60;75.67;101477.94;5056341;28;45249;-82
2021/11/20 08:53:49;;;;;;;;;14.00;10.50;;;;;8.57;75.42;101475.41;5056596;28;45187;-82
2021/11/20 08:56:14;;;;;;;;;12.00;11.50;;;;;8.56;75.85;101471.84;5056558;28;45156;-81
2021/11/20 08:58:40;;;;;;;;;12.00;10.00;;;;;8.62;76.00;101473.44;5056485;28;45844;-81
2021/11/20 09:01:10;;;;;;;;;12.00;12.00;;;;;8.63;76.12;101465.44;5055375;28;45314;-81
2021/11/20 09:03:43;;;;;;;;;14.25;13.00;;;;;8.67;76.11;101468.88;5056574;28;45234;-81
2021/11/20 09:06:25;;;;;;;;;14.25;11.75;;;;;8.70;76.20;101471.41;5054293;28;45289;-81
2021/11/20 09:09:33;;;;;;;;;16.00;14.00;;;;;8.73;75.89;101475.75;5055678;28;48100;-81
2021/11/20 09:12:21;;;;;;;;;14.75;13.00;;;;;8.74;75.83;101458.94;5054235;28;45334;-81
2021/11/20 09:14:55;;;;;;;;;14.25;13.50;;;;;8.75;75.32;101458.00;5056719;28;45299;-81
2021/11/20 09:17:21;;;;;;;;;15.75;14.00;;;;;8.74;75.42;101451.84;5055683;28;45246;-81
2021/11/20 09:19:47;;;;;;;;;16.50;13.75;;;;;8.75;75.50;101450.03;5040933;28;47626;-81
2021/11/20 09:22:14;;;;;;;;;14.25;13.75;;;;;8.83;75.19;101445.34;5076677;28;45286;-84
2021/11/20 09:24:43;;;;;;;;;13.75;12.75;;;;;8.83;74.73;101439.19;5076513;28;45340;-84
2021/11/20 09:27:10;;;;;;;;;21.00;13.50;;;;;8.92;75.27;101449.47;5076739;28;45151;-86
2021/11/20 09:29:37;;;;;;;;;14.75;12.75;;;;;8.94;75.10;101445.88;5058178;28;46197;-86
2021/11/20 09:32:03;;;;;;;;;19.50;14.25;;;;;8.99;75.02;101445.69;5076568;28;45336;-85
2021/11/20 09:34:29;;;;;;;;;15.50;15.00;;;;;8.98;74.88;101446.63;5078221;28;45159;-87
2021/11/20 09:36:57;;;;;;;;;14.50;13.00;;;;;9.01;74.97;101438.56;5059995;28;45215;-88
2021/11/20 09:39:27;;;;;;;;;20.75;14.25;;;;;9.04;74.93;101434.94;5058444;28;48583;-87
2021/11/20 09:42:15;;;;;;;;;15.00;12.00;;;;;9.02;74.73;101444.72;5076819;28;45853;-87
2021/11/20 09:44:43;;;;;;;;;16.50;14.00;;;;;9.02;74.67;101442.97;5077393;28;45128;-86
2021/11/20 09:47:22;;;;;;;;;18.50;15.75;;;;;9.04;74.88;101441.13;5076639;28;45136;-82
2021/11/20 09:49:51;;;;;;;;;16.50;14.50;;;;;9.09;74.90;101430.34;5076086;28;45254;-81
2021/11/20 09:52:17;;;;;;;;;15.25;13.50;;;;;9.13;74.29;101437.28;5075987;28;45299;-81
2021/11/20 09:54:45;;;;;;;;;14.00;13.75;;;;;9.12;74.52;101433.75;5074416;28;45370;-80
2021/11/20 09:57:10;;;;;;;;;15.75;14.50;;;;;9.14;74.18;101434.56;5076164;28;45171;-80
2021/11/20 09:59:44;;;;;;;;;16.33;13.00;;;;;9.12;74.22;101431.09;5075656;28;46269;-80
2021/11/20 10:02:31;;;;;;;;;15.00;12.75;;;;;9.12;73.95;101428.44;5076057;28;45254;-80
2021/11/20 10:05:08;;;;;;;;;17.50;15.50;;;;;9.13;74.21;101421.34;5414839;22;45389;-79
2021/11/20 10:07:38;;;;;;;;;21.75;20.25;;;;;9.14;74.09;101429.25;5075989;28;45206;-80
2021/11/20 10:10:15;;;;;;;;;15.25;13.50;;;;;9.15;74.02;101427.47;5073980;27;46474;-79
2021/11/20 10:12:53;;;;;;;;;17.50;15.50;;;;;9.14;74.02;101420.44;5077585;27;45276;-79
2021/11/20 10:15:34;;;;;;;;;18.00;16.75;;;;;9.11;73.84;101418.75;5096079;27;45304;-80
2021/11/20 10:18:12;;;;;;;;;15.75;14.00;;;;;9.07;74.12;101416.28;5095984;27;45288;-79
2021/11/20 10:21:10;;;;;;;;;19.00;17.75;;;;;9.04;74.41;101411.94;5095923;27;46666;-79
2021/11/20 10:23:53;;;;;;;;;17.00;15.00;;;;;9.10;74.24;101406.41;5095748;27;45125;-79
2021/11/20 10:26:54;;;;;;;;;19.75;16.50;;;;;9.15;74.23;101401.81;5096983;27;45219;-81
2021/11/20 10:29:52;;;;;;;;;20.75;16.75;;;;;9.19;73.85;101405.19;5034549;28;45250;-81
2021/11/20 10:32:31;;;;;;;;;20.00;19.50;;;;;9.15;73.94;101391.19;5035722;28;48244;-81
2021/11/20 10:35:01;;;;;;;;;19.50;18.75;;;;;9.11;73.74;101388.72;5036351;28;45195;-80
2021/11/20 10:37:36;;;;;;;;;22.00;18.50;;;;;9.07;73.88;101390.59;5036217;28;45234;-88
2021/11/20 10:40:16;;;;;;;;;22.00;18.00;;;;;9.04;73.83;101388.06;5036371;28;45329;-84
2021/11/20 10:42:50;;;;;;;;;21.00;18.75;;;;;9.06;74.61;101388.00;5036592;28;45257;-79
2021/11/20 10:45:29;;;;;;;;;21.00;18.00;;;;;9.06;74.41;101385.34;5036018;28;45168;-80
2021/11/20 10:48:26;;;;;;;;;20.50;17.50;;;;;9.15;74.08;101383.22;5036291;28;45227;-85
2021/11/20 10:51:12;;;;;;;;;23.75;19.00;;;;;9.23;74.05;101374.97;5036423;28;45176;-85
2021/11/20 10:54:02;;;;;;;;;21.50;20.25;;;;;9.22;73.54;101360.00;5036043;28;45392;-85
2021/11/20 10:56:55;;;;;;;;;26.00;23.50;;;;;9.32;73.94;101358.75;5036205;28;45648;-85
2021/11/20 10:59:32;;;;;;;;;21.00;20.25;;;;;9.37;73.92;101363.00;5036122;28;45370;-85
2021/11/20 11:02:25;;;;;;;;;21.25;19.00;;;;;9.36;73.83;101348.84;5036165;28;45282;-85
2021/11/20 11:05:12;;;;;;;;;25.25;20.75;;;;;9.41;73.62;101349.56;5043512;27;46038;-86
2021/11/20 11:07:57;;;;;;;;;23.75;20.25;;;;;9.39;73.85;101345.22;5099224;27;45247;-86
2021/11/20 11:10:32;;;;;;;;;23.50;19.75;;;;;9.42;73.68;101342.44;5099115;27;45203;-85
2021/11/20 11:13:09;;;;;;;;;20.75;18.00;;;;;9.42;73.83;101334.50;5099435;27;45211;-85
2021/11/20 11:15:56;;;;;;;;;19.50;16.75;;;;;9.40;73.74;101325.72;5100088;27;45237;-88
2021/11/20 11:18:39;;;;;;;;;24.50;19.50;;;;;9.39;73.28;101326.66;5080691;27;46275;-87
2021/11/20 11:21:29;;;;;;;;;22.00;20.50;;;;;9.35;73.05;101320.59;5099036;27;45248;-87
2021/11/20 11:23:54;;;;;;;;;21.50;18.00;;;;;9.34;73.57;101318.88;5080199;27;45146;-86
2021/11/20 11:26:20;;;;;;;;;25.33;20.33;;;;;9.31;73.12;101305.72;5080654;27;47316;-85
2021/11/20 11:28:54;;;;;;;;;19.00;17.00;;;;;9.35;73.20;101310.00;5099434;27;45163;-91
2021/11/20 11:31:30;;;;;;;;;26.00;24.00;;;;;9.37;73.31;101301.97;5099060;27;45216;-81
2021/11/20 11:34:26;;;;;;;;;20.75;18.75;;;;;9.40;73.47;101296.53;5098633;27;45289;-81
2021/11/20 11:37:26;;;;;;;;;20.00;19.25;;;;;9.45;73.19;101286.63;5092530;27;45509;-81